Time;durP1;ratioP1;P1;durP2;ratioP2;P2;SDS_P1;SDS_P2;PMS_P1;PMS_P2;Temp;Humidity;BMP_temperature;BMP_pressure;BME280_temperature;BME280_humidity;BME280_pressure;Samples;Min_cycle;Max_cycle;Signal;HPM_P1;HPM_P2
2021/01/13 00:00:22;;;;;;;47.83;26.70;;;;;;;-1.77;98.47;94304.41;5066226;28;20110;-71
2021/01/13 00:02:49;;;;;;;53.42;25.83;;;;;;;-1.70;98.57;94306.31;5064982;28;20468;-71
2021/01/13 00:05:16;;;;;;;51.40;24.75;;;;;;;-1.66;98.36;94312.66;5070540;28;20175;-71
2021/01/13 00:07:44;;;;;;;48.50;23.92;;;;;;;-1.68;98.47;94319.69;5065473;28;20036;-72
2021/01/13 00:10:12;;;;;;;42.60;21.98;;;;;;;-1.86;98.58;94307.97;5068947;28;20134;-72
2021/01/13 00:12:38;;;;;;;46.97;23.80;;;;;;;-1.69;98.45;94318.09;5069792;28;20066;-72
2021/01/13 00:15:09;;;;;;;50.92;25.60;;;;;;;-1.87;98.82;94308.94;5072553;28;20036;-72
2021/01/13 00:17:36;;;;;;;48.20;21.77;;;;;;;-1.83;98.82;94312.75;5071501;28;20045;-72
2021/01/13 00:20:05;;;;;;;49.90;26.15;;;;;;;-1.80;99.17;94332.84;5072122;28;20456;-72
2021/01/13 00:22:31;;;;;;;47.58;25.13;;;;;;;-1.77;98.91;94332.47;5074758;28;20055;-72
2021/01/13 00:24:57;;;;;;;55.33;26.15;;;;;;;-1.84;99.13;94325.66;5073876;28;20040;-72
2021/01/13 00:27:24;;;;;;;53.97;26.98;;;;;;;-1.79;99.25;94333.63;5064764;28;20059;-72
2021/01/13 00:29:52;;;;;;;44.63;22.75;;;;;;;-2.03;99.13;94312.34;5071185;28;20056;-72
2021/01/13 01:00:17;;;;;;;49.65;26.92;;;;;;;-1.75;99.11;94333.13;4801316;29;20046;-71
2021/01/13 01:03:01;;;;;;;49.08;23.23;;;;;;;-1.90;98.52;94327.13;4902955;29;20162;-71
2021/01/13 01:05:46;;;;;;;43.03;22.45;;;;;;;-1.87;99.07;94326.81;4976606;28;20041;-71
2021/01/13 01:08:26;;;;;;;48.10;24.20;;;;;;;-1.82;98.93;94322.00;4941166;29;20520;-71
2021/01/13 01:11:24;;;;;;;45.70;23.55;;;;;;;-1.88;98.97;94307.34;4921083;28;20458;-70
2021/01/13 01:13:50;;;;;;;48.53;26.33;;;;;;;-1.73;99.19;94317.63;4921102;29;20171;-70
2021/01/13 01:16:17;;;;;;;51.67;26.42;;;;;;;-1.67;99.12;94327.19;4921944;29;20095;-70
2021/01/13 01:18:45;;;;;;;50.22;25.38;;;;;;;-1.64;98.72;94326.88;4913872;29;20486;-70
2021/01/13 01:21:12;;;;;;;55.10;25.67;;;;;;;-1.74;98.78;94310.94;4923208;28;20100;-70
2021/01/13 01:23:38;;;;;;;51.88;24.90;;;;;;;-1.75;98.76;94305.06;4920720;29;20071;-71
2021/01/13 01:26:05;;;;;;;58.58;28.48;;;;;;;-1.83;99.20;94289.78;4922351;29;20182;-70
2021/01/13 01:28:32;;;;;;;49.85;25.83;;;;;;;-1.64;99.16;94315.84;4921278;29;20060;-71
2021/01/13 01:30:58;;;;;;;46.30;24.70;;;;;;;-1.67;98.87;94306.75;4921988;29;20231;-71
2021/01/13 01:33:25;;;;;;;48.67;23.83;;;;;;;-1.80;98.82;94302.22;4919859;29;20047;-71
2021/01/13 01:35:51;;;;;;;45.08;23.02;;;;;;;-1.81;98.86;94295.50;4923389;29;20067;-71
2021/01/13 01:38:18;;;;;;;46.38;22.02;;;;;;;-1.91;98.72;94284.69;4970443;28;20056;-71
2021/01/13 01:40:45;;;;;;;50.17;25.88;;;;;;;-1.79;98.73;94295.34;4979265;28;20054;-71
2021/01/13 01:43:11;;;;;;;51.78;26.08;;;;;;;-1.84;99.07;94290.72;4979679;28;20049;-71
2021/01/13 01:45:38;;;;;;;55.50;27.67;;;;;;;-1.79;99.11;94293.56;5016660;28;20060;-71
2021/01/13 01:48:26;;;;;;;50.45;27.23;;;;;;;-1.74;98.83;94286.19;5078650;28;20052;-70
2021/01/13 01:50:57;;;;;;;50.80;26.88;;;;;;;-1.70;98.92;94290.97;5102783;28;20560;-70
2021/01/13 01:53:31;;;;;;;47.13;25.55;;;;;;;-1.73;99.10;94289.53;5096513;28;20056;-70
2021/01/13 01:56:12;;;;;;;53.17;24.87;;;;;;;-1.75;99.06;94284.63;5088231;28;20113;-70
2021/01/13 01:58:42;;;;;;;59.67;28.38;;;;;;;-1.80;99.13;94292.00;5070482;28;20028;-70
2021/01/13 02:01:09;;;;;;;55.30;28.73;;;;;;;-1.94;99.49;94277.38;5089088;28;20036;-71
2021/01/13 02:03:44;;;;;;;49.03;23.77;;;;;;;-1.88;99.41;94284.38;5088018;28;20115;-70
2021/01/13 02:06:14;;;;;;;39.40;20.85;;;;;;;-1.92;99.26;94283.13;5089141;28;20051;-70
2021/01/13 02:08:42;;;;;;;50.90;24.52;;;;;;;-1.95;99.33;94280.88;5088723;28;20135;-70
2021/01/13 02:11:22;;;;;;;54.47;25.52;;;;;;;-1.89;99.49;94287.91;5088232;28;20032;-70
2021/01/13 02:13:48;;;;;;;52.70;26.30;;;;;;;-1.96;99.66;94271.66;5071237;28;20040;-70
2021/01/13 02:16:17;;;;;;;54.72;27.50;;;;;;;-1.82;99.51;94293.09;5089264;28;20044;-70
2021/01/13 02:18:48;;;;;;;52.25;27.52;;;;;;;-1.86;99.64;94302.84;5071445;28;20032;-70
2021/01/13 02:21:21;;;;;;;58.67;28.33;;;;;;;-1.85;99.58;94285.81;5071185;28;20059;-70
2021/01/13 02:23:49;;;;;;;49.60;25.40;;;;;;;-1.78;98.91;94300.28;5070838;28;20051;-70
2021/01/13 02:26:27;;;;;;;56.47;26.30;;;;;;;-1.81;99.02;94295.50;5087568;28;20036;-70
2021/01/13 02:29:16;;;;;;;56.72;27.52;;;;;;;-1.75;98.73;94289.72;5088255;28;20039;-70
2021/01/13 02:32:00;;;;;;;49.92;24.75;;;;;;;-1.84;98.97;94275.41;5054271;28;20505;-70
2021/01/13 02:34:39;;;;;;;53.17;26.00;;;;;;;-1.74;98.69;94286.19;5088311;28;20745;-70
2021/01/13 02:37:33;;;;;;;56.00;25.65;;;;;;;-1.80;98.38;94274.13;5088963;28;20036;-70
2021/01/13 02:40:07;;;;;;;55.85;25.40;;;;;;;-1.90;99.02;94263.31;5088246;28;20135;-70
2021/01/13 02:42:37;;;;;;;60.28;27.95;;;;;;;-1.86;99.24;94281.66;5086553;28;20127;-70
2021/01/13 02:45:09;;;;;;;53.70;26.42;;;;;;;-1.86;99.42;94282.44;5088028;28;20171;-70
2021/01/13 02:47:57;;;;;;;58.53;25.38;;;;;;;-1.81;99.28;94277.63;5087956;28;20044;-70
2021/01/13 02:50:29;;;;;;;56.55;27.73;;;;;;;-1.84;99.20;94270.28;5070327;28;20048;-70
2021/01/13 02:53:13;;;;;;;62.00;28.08;;;;;;;-1.78;99.44;94274.75;5088445;28;20122;-70
2021/01/13 02:55:47;;;;;;;60.03;27.85;;;;;;;-1.76;99.31;94283.03;5069328;28;20044;-69
2021/01/13 02:58:29;;;;;;;54.70;26.77;;;;;;;-1.70;99.15;94281.56;5069229;28;20071;-70
2021/01/13 03:00:56;;;;;;;53.10;26.25;;;;;;;-1.71;98.93;94279.16;5070505;28;20040;-70
2021/01/13 03:03:23;;;;;;;58.85;28.23;;;;;;;-1.69;99.05;94272.13;5085208;28;20043;-71
2021/01/13 03:05:50;;;;;;;52.72;26.75;;;;;;;-1.73;98.89;94277.59;5085108;28;20040;-70
2021/01/13 03:08:17;;;;;;;55.80;26.48;;;;;;;-1.79;99.13;94268.03;5087706;28;20040;-69
2021/01/13 03:10:48;;;;;;;56.35;27.75;;;;;;;-1.84;99.02;94265.19;5069766;28;20519;-70
2021/01/13 03:13:14;;;;;;;56.10;27.55;;;;;;;-1.81;99.35;94269.97;5087598;28;20028;-70
2021/01/13 03:15:41;;;;;;;63.78;29.42;;;;;;;-1.81;100.00;94266.63;5087967;28;20119;-70
2021/01/13 03:18:21;;;;;;;57.42;28.65;;;;;;;-1.82;100.00;94268.41;5087534;28;20058;-70
2021/01/13 03:21:14;;;;;;;59.22;26.65;;;;;;;-1.78;100.00;94269.63;5086711;28;20047;-70
2021/01/13 03:23:46;;;;;;;55.58;26.63;;;;;;;-1.82;99.79;94253.06;5087583;28;20043;-70
2021/01/13 03:26:17;;;;;;;50.80;22.55;;;;;;;-1.91;99.49;94254.06;5086647;28;20409;-71
2021/01/13 03:28:44;;;;;;;56.83;27.08;;;;;;;-1.81;99.67;94269.97;5087668;28;20465;-70
2021/01/13 03:31:16;;;;;;;55.45;27.23;;;;;;;-1.79;99.61;94270.59;5086366;28;20039;-70
2021/01/13 03:34:14;;;;;;;59.53;27.60;;;;;;;-1.80;99.78;94271.56;5087023;28;20397;-71
2021/01/13 03:36:49;;;;;;;58.50;27.80;;;;;;;-1.79;100.00;94262.94;5069556;28;20131;-70
2021/01/13 03:39:21;;;;;;;58.90;28.67;;;;;;;-1.73;99.70;94272.50;5087283;28;20123;-70
2021/01/13 03:42:04;;;;;;;54.35;26.25;;;;;;;-1.78;99.84;94272.19;5086735;28;20397;-70
2021/01/13 03:44:35;;;;;;;62.75;29.25;;;;;;;-1.70;99.74;94270.56;5084136;28;20145;-70
2021/01/13 03:47:29;;;;;;;60.22;28.30;;;;;;;-1.73;99.50;94271.66;5086023;28;20040;-70
2021/01/13 03:50:18;;;;;;;55.42;27.70;;;;;;;-1.82;99.39;94268.41;5051633;28;20505;-70
2021/01/13 03:52:59;;;;;;;45.30;21.75;;;;;;;-1.83;99.28;94266.00;5084345;28;20028;-69
2021/01/13 03:55:29;;;;;;;60.30;28.27;;;;;;;-1.76;99.48;94261.81;5086458;28;20119;-69
2021/01/13 03:57:58;;;;;;;58.97;27.33;;;;;;;-1.74;99.20;94260.66;5085167;28;20425;-69
2021/01/13 04:00:28;;;;;;;60.00;26.88;;;;;;;-1.75;99.34;94254.00;5068449;28;20071;-69
2021/01/13 04:03:15;;;;;;;59.88;27.98;;;;;;;-1.75;99.58;94269.31;5085142;28;20389;-70
2021/01/13 04:06:01;;;;;;;55.38;26.58;;;;;;;-1.68;99.30;94278.84;5085780;28;20557;-69
2021/01/13 04:08:39;;;;;;;58.30;28.17;;;;;;;-1.76;99.71;94272.03;5085403;28;20036;-70
2021/01/13 04:11:14;;;;;;;62.47;27.60;;;;;;;-1.66;99.46;94276.91;5085558;28;20145;-69
2021/01/13 04:13:52;;;;;;;62.85;29.05;;;;;;;-1.79;99.31;94273.13;5085987;28;20040;-69
2021/01/13 04:16:20;;;;;;;73.80;32.13;;;;;;;-1.62;99.36;94273.03;5085886;28;20048;-69
2021/01/13 04:18:50;;;;;;;96.32;41.25;;;;;;;-1.62;99.00;94283.25;5068278;28;20031;-69
2021/01/13 04:21:18;;;;;;;120.85;50.78;;;;;;;-1.65;98.92;94289.50;5085987;28;20036;-69
2021/01/13 04:23:46;;;;;;;158.48;61.08;;;;;;;-1.80;99.49;94276.69;5085578;28;20032;-70
2021/01/13 04:26:13;;;;;;;59.63;29.48;;;;;;;-1.83;99.73;94287.22;5084822;28;20042;-70
2021/01/13 04:28:40;;;;;;;84.32;40.00;;;;;;;-1.77;99.80;94285.75;5085906;28;20506;-69
2021/01/13 04:31:08;;;;;;;65.65;31.50;;;;;;;-1.83;99.65;94282.09;5085826;28;20443;-69
2021/01/13 04:33:35;;;;;;;60.47;26.02;;;;;;;-2.07;99.98;94254.16;5085532;28;20035;-69
2021/01/13 04:36:03;;;;;;;69.35;32.40;;;;;;;-1.91;99.76;94271.94;5085901;28;20050;-69
2021/01/13 04:38:32;;;;;;;59.70;26.67;;;;;;;-1.83;99.63;94271.91;5085546;28;20048;-69
2021/01/13 04:41:13;;;;;;;68.00;32.47;;;;;;;-1.83;99.46;94286.44;5084738;28;20432;-69
2021/01/13 04:44:01;;;;;;;63.05;29.42;;;;;;;-1.90;99.81;94280.41;5066710;28;20036;-69
2021/01/13 04:46:33;;;;;;;69.57;33.97;;;;;;;-1.89;99.57;94266.66;5084959;28;20448;-69
2021/01/13 04:49:11;;;;;;;65.47;29.60;;;;;;;-1.90;99.64;94281.19;5085700;28;20089;-69
2021/01/13 04:51:41;;;;;;;60.47;28.45;;;;;;;-1.94;99.65;94285.03;5067804;28;20044;-69
2021/01/13 04:54:09;;;;;;;70.90;31.40;;;;;;;-1.91;99.49;94289.78;5085772;28;20036;-69
2021/01/13 04:57:17;;;;;;;59.47;28.48;;;;;;;-1.90;99.47;94290.59;5066587;28;20482;-70
2021/01/13 05:00:06;;;;;;;60.72;25.33;;;;;;;-1.89;99.53;94287.91;5058804;28;20425;-69
2021/01/13 05:02:42;;;;;;;75.95;34.08;;;;;;;-1.91;99.64;94294.91;5085109;28;20047;-69
2021/01/13 05:05:21;;;;;;;60.30;30.52;;;;;;;-1.88;99.36;94294.56;5081161;28;20040;-70
2021/01/13 05:07:56;;;;;;;65.18;29.20;;;;;;;-1.95;99.73;94298.75;5066868;28;20047;-69
2021/01/13 05:10:24;;;;;;;60.58;27.80;;;;;;;-1.98;99.61;94293.97;5085181;28;20548;-69
2021/01/13 05:12:57;;;;;;;58.38;27.23;;;;;;;-1.90;99.42;94300.81;5067115;28;20047;-70
2021/01/13 05:15:29;;;;;;;60.65;27.35;;;;;;;-1.91;99.35;94294.91;5085407;28;20412;-70
2021/01/13 05:17:58;;;;;;;61.58;30.45;;;;;;;-1.91;99.25;94300.00;5084320;28;20062;-70
2021/01/13 05:20:28;;;;;;;63.88;27.75;;;;;;;-1.95;99.53;94308.97;5085318;28;20047;-70
2021/01/13 05:23:00;;;;;;;70.40;31.58;;;;;;;-1.93;99.41;94302.75;5051662;28;20039;-71
2021/01/13 05:25:42;;;;;;;54.28;27.38;;;;;;;-1.90;99.18;94305.94;5086246;28;20039;-70
2021/01/13 05:28:25;;;;;;;59.55;29.42;;;;;;;-1.87;99.36;94321.69;5085899;28;20097;-69
2021/01/13 05:30:51;;;;;;;56.05;27.70;;;;;;;-1.88;99.62;94312.44;5088904;28;20043;-69
2021/01/13 05:33:30;;;;;;;48.60;20.73;;;;;;;-1.93;99.40;94296.81;5089725;28;20479;-69
2021/01/13 05:35:58;;;;;;;57.22;26.88;;;;;;;-1.90;99.33;94316.13;5070391;28;20052;-70
2021/01/13 05:38:46;;;;;;;62.90;27.88;;;;;;;-1.91;99.22;94312.75;5089468;28;20105;-70
2021/01/13 05:41:13;;;;;;;57.30;27.52;;;;;;;-1.84;99.16;94311.13;5088108;28;22064;-70
2021/01/13 05:43:43;;;;;;;59.65;28.23;;;;;;;-1.77;99.34;94326.59;5087452;28;20098;-70
2021/01/13 05:46:12;;;;;;;58.67;30.52;;;;;;;-1.80;99.08;94322.63;5089241;28;20117;-70
2021/01/13 05:48:49;;;;;;;68.03;31.83;;;;;;;-1.79;99.47;94324.19;5089123;28;20047;-70
2021/01/13 05:51:25;;;;;;;62.15;29.73;;;;;;;-1.89;99.44;94308.31;5088615;28;20527;-70
2021/01/13 05:53:52;;;;;;;54.63;28.23;;;;;;;-1.83;99.54;94330.63;5088943;28;20040;-69
2021/01/13 05:56:19;;;;;;;64.30;29.45;;;;;;;-1.78;99.50;94323.25;5089135;28;20047;-69
2021/01/13 05:58:46;;;;;;;58.70;29.20;;;;;;;-1.67;99.17;94321.28;5070462;28;20054;-70
2021/01/13 06:01:32;;;;;;;64.80;28.08;;;;;;;-1.63;98.51;94338.66;5088584;28;20040;-69
2021/01/13 06:03:59;;;;;;;51.90;26.50;;;;;;;-1.73;98.74;94323.56;5069683;28;20075;-70
2021/01/13 06:06:26;;;;;;;58.60;30.13;;;;;;;-1.64;99.00;94334.53;5088531;28;20074;-70
2021/01/13 06:08:55;;;;;;;64.43;28.58;;;;;;;-1.72;98.87;94329.44;5070004;28;20052;-71
2021/01/13 06:11:23;;;;;;;59.95;28.50;;;;;;;-1.69;99.00;94338.50;5088814;28;20039;-70
2021/01/13 06:13:50;;;;;;;63.30;29.90;;;;;;;-1.50;98.76;94353.44;5088475;28;20137;-71
2021/01/13 06:16:17;;;;;;;59.17;29.90;;;;;;;-1.52;98.66;94347.69;5088465;28;20036;-71
2021/01/13 06:18:44;;;;;;;58.20;27.35;;;;;;;-1.64;98.50;94347.28;5088158;28;20040;-72
2021/01/13 06:21:12;;;;;;;59.15;29.35;;;;;;;-1.63;98.29;94342.97;5069856;28;20766;-71
2021/01/13 06:23:48;;;;;;;60.72;27.63;;;;;;;-1.57;98.47;94357.63;5070694;28;20149;-71
2021/01/13 06:26:15;;;;;;;63.50;27.85;;;;;;;-1.79;98.61;94333.63;5070364;28;20051;-71
2021/01/13 06:29:11;;;;;;;55.25;27.23;;;;;;;-1.57;98.93;94353.31;5069675;28;20145;-70
2021/01/13 06:31:43;;;;;;;54.40;26.45;;;;;;;-1.61;99.31;94343.59;5068341;28;20071;-71
2021/01/13 06:34:28;;;;;;;67.55;31.10;;;;;;;-1.56;99.60;94354.09;5086703;28;20040;-71
2021/01/13 06:36:57;;;;;;;59.38;27.20;;;;;;;-1.53;99.32;94364.00;5069165;28;20036;-71
2021/01/13 06:39:26;;;;;;;64.15;28.58;;;;;;;-1.59;99.07;94365.44;5068866;28;20042;-71
2021/01/13 06:41:52;;;;;;;55.45;25.45;;;;;;;-1.55;98.68;94366.72;5086618;28;20600;-71
2021/01/13 06:44:18;;;;;;;64.75;29.10;;;;;;;-1.45;98.60;94371.59;5085186;28;20521;-72
2021/01/13 06:46:50;;;;;;;67.75;30.10;;;;;;;-1.43;99.10;94369.66;5069012;28;20611;-71
2021/01/13 06:49:25;;;;;;;59.40;27.25;;;;;;;-1.39;98.89;94377.78;5053089;28;20052;-71
2021/01/13 06:51:51;;;;;;;66.30;27.63;;;;;;;-1.45;98.83;94369.03;5088552;28;20040;-71
2021/01/13 06:54:21;;;;;;;56.38;25.55;;;;;;;-1.54;98.64;94377.72;5069833;28;20040;-71
2021/01/13 06:56:53;;;;;;;62.33;28.42;;;;;;;-1.46;99.08;94372.59;5088231;28;20040;-72
2021/01/13 06:59:22;;;;;;;59.22;28.80;;;;;;;-1.41;98.89;94367.75;5086340;28;20048;-72
2021/01/13 07:01:50;;;;;;;61.42;28.65;;;;;;;-1.30;98.79;94374.22;5088142;28;20032;-71
2021/01/13 07:04:17;;;;;;;55.97;28.38;;;;;;;-1.51;98.40;94362.06;5053007;28;20055;-72
2021/01/13 07:06:56;;;;;;;63.00;30.58;;;;;;;-1.42;98.85;94371.28;5068973;28;20047;-72
2021/01/13 07:09:23;;;;;;;54.65;26.35;;;;;;;-1.28;98.89;94374.06;5086112;28;20055;-72
2021/01/13 07:11:51;;;;;;;51.05;24.63;;;;;;;-1.44;98.29;94363.00;5087757;28;20055;-72
2021/01/13 07:14:18;;;;;;;60.63;29.08;;;;;;;-1.39;98.16;94370.13;5087554;28;20076;-71
2021/01/13 07:16:45;;;;;;;57.10;25.67;;;;;;;-1.37;98.05;94374.13;5087784;28;20090;-71
2021/01/13 07:19:11;;;;;;;51.50;21.40;;;;;;;-1.46;97.79;94370.03;5069179;28;20044;-71
2021/01/13 07:21:40;;;;;;;70.57;33.30;;;;;;;-1.38;98.44;94382.75;5087876;28;20051;-72
2021/01/13 07:24:13;;;;;;;78.35;34.50;;;;;;;-1.44;98.46;94378.31;5068359;28;20044;-72
2021/01/13 07:26:40;;;;;;;56.43;25.97;;;;;;;-1.33;98.48;94389.09;5087252;28;20044;-71
2021/01/13 07:29:07;;;;;;;59.25;27.73;;;;;;;-1.55;98.84;94371.00;5069170;28;20051;-72
2021/01/13 07:31:34;;;;;;;61.08;29.73;;;;;;;-1.37;98.92;94389.47;5087509;28;20562;-72
2021/01/13 07:34:25;;;;;;;57.63;26.80;;;;;;;-1.32;99.10;94385.59;5085221;28;20043;-72
2021/01/13 07:36:58;;;;;;;60.30;27.00;;;;;;;-1.36;99.24;94391.03;5087163;28;20070;-72
2021/01/13 07:40:02;;;;;;;62.25;28.90;;;;;;;-1.36;98.55;94391.03;5087074;28;20111;-72
2021/01/13 07:42:44;;;;;;;50.83;25.10;;;;;;;-1.42;98.83;94391.72;5068440;28;20127;-73
2021/01/13 07:45:16;;;;;;;62.65;26.45;;;;;;;-1.53;98.33;94384.44;5085155;28;20040;-71
2021/01/13 07:47:42;;;;;;;64.53;29.52;;;;;;;-1.40;98.71;94399.22;5087704;28;20051;-71
2021/01/13 07:50:13;;;;;;;69.28;33.85;;;;;;;-1.28;99.11;94392.72;5086818;28;20044;-72
2021/01/13 07:52:47;;;;;;;63.17;29.83;;;;;;;-1.33;98.86;94381.44;5068658;28;20507;-72
2021/01/13 07:55:16;;;;;;;60.70;31.38;;;;;;;-1.22;98.70;94391.28;5086618;28;20111;-71
2021/01/13 07:57:46;;;;;;;57.33;27.75;;;;;;;-1.16;98.16;94395.72;5086929;28;20405;-72
2021/01/13 08:00:37;;;;;;;49.75;24.02;;;;;;;-1.21;97.49;94392.88;5068827;28;20039;-72
2021/01/13 08:03:37;;;;;;;70.53;35.28;;;;;;;-1.16;98.06;94398.28;5085127;28;20039;-72
2021/01/13 08:06:27;;;;;;;64.78;32.25;;;;;;;-1.15;97.84;94392.22;5068602;28;20048;-71
2021/01/13 08:09:15;;;;;;;63.80;28.25;;;;;;;-0.96;97.53;94407.06;5068897;28;20040;-71
2021/01/13 08:12:03;;;;;;;64.75;30.02;;;;;;;-0.95;96.58;94407.91;5085620;28;20424;-72
2021/01/13 08:15:03;;;;;;;57.75;26.83;;;;;;;-0.84;96.90;94409.25;5084008;28;20513;-71
2021/01/13 08:18:05;;;;;;;68.85;31.98;;;;;;;-0.89;96.02;94416.66;5067575;28;20039;-72
2021/01/13 08:21:54;;;;;;;55.80;27.48;;;;;;;-0.85;96.50;94412.78;5085261;28;20593;-72
2021/01/13 08:24:03;;;;;;;65.75;29.35;;;;;;;-0.96;96.61;94407.06;5070189;28;20588;-73
2021/01/13 08:26:30;;;;;;;53.90;27.60;;;;;;;-0.94;95.69;94413.78;5067207;28;20044;-72
2021/01/13 08:29:01;;;;;;;77.05;36.15;;;;;;;-0.86;96.23;94426.53;5085940;28;20489;-72
2021/01/13 08:31:28;;;;;;;83.57;42.03;;;;;;;-0.82;96.08;94433.69;5050934;28;20055;-73
2021/01/13 08:34:07;;;;;;;56.78;29.65;;;;;;;-0.72;95.84;94433.47;5086642;28;20289;-72
2021/01/13 08:36:36;;;;;;;62.20;29.05;;;;;;;-0.74;95.43;94425.16;5068518;28;20032;-72
2021/01/13 08:39:06;;;;;;;61.55;30.80;;;;;;;-0.68;95.36;94447.50;5086240;28;20044;-72
2021/01/13 08:41:32;;;;;;;58.00;26.90;;;;;;;-0.75;95.14;94454.25;5067007;28;20072;-71
2021/01/13 08:44:18;;;;;;;58.88;29.45;;;;;;;-0.90;95.17;94426.09;5084818;28;20048;-71
2021/01/13 08:46:46;;;;;;;54.85;25.58;;;;;;;-0.75;95.03;94459.38;5084799;28;20520;-72
2021/01/13 08:49:24;;;;;;;58.58;29.58;;;;;;;-0.76;95.04;94462.88;5086471;28;20040;-72
2021/01/13 08:52:12;;;;;;;63.15;30.95;;;;;;;-0.80;95.28;94456.53;5086033;28;20050;-71
2021/01/13 08:54:45;;;;;;;65.63;29.60;;;;;;;-0.78;95.50;94464.81;5085471;28;20035;-73
2021/01/13 08:57:12;;;;;;;59.65;25.80;;;;;;;-0.73;95.44;94467.69;5086636;28;20047;-71
2021/01/13 08:59:44;;;;;;;63.33;27.73;;;;;;;-0.84;94.61;94455.28;5086097;28;20048;-71
2021/01/13 09:02:11;;;;;;;58.53;26.33;;;;;;;-0.77;94.96;94471.53;5066610;28;20040;-72
2021/01/13 09:04:57;;;;;;;63.80;30.40;;;;;;;-0.80;94.88;94471.88;5088575;28;20109;-72
2021/01/13 09:07:30;;;;;;;62.42;29.80;;;;;;;-0.77;94.36;94471.53;5072094;28;20039;-71
2021/01/13 09:10:06;;;;;;;64.65;28.23;;;;;;;-0.89;94.58;94465.22;5090491;28;20036;-72
2021/01/13 09:12:42;;;;;;;64.47;26.40;;;;;;;-0.93;95.16;94462.22;5090223;28;20475;-72
2021/01/13 09:15:08;;;;;;;51.88;23.95;;;;;;;-0.84;94.91;94461.19;5089387;28;20362;-72
2021/01/13 09:17:47;;;;;;;57.83;26.98;;;;;;;-0.78;95.50;94454.59;5089689;28;20111;-72
2021/01/13 09:20:13;;;;;;;49.90;24.88;;;;;;;-0.76;94.82;94457.78;5090013;28;20063;-72
2021/01/13 09:22:41;;;;;;;49.85;25.70;;;;;;;-0.62;94.86;94454.47;5071691;28;20030;-72
2021/01/13 09:25:23;;;;;;;50.38;26.48;;;;;;;-0.51;94.91;94455.06;5091506;28;20044;-72
2021/01/13 09:28:01;;;;;;;55.30;25.75;;;;;;;-0.59;94.18;94451.59;5071424;28;20036;-72
2021/01/13 09:30:40;;;;;;;62.53;30.42;;;;;;;-0.48;95.12;94447.84;5069357;28;20043;-71
2021/01/13 09:33:10;;;;;;;53.22;26.48;;;;;;;-0.38;94.02;94450.16;5087398;28;20043;-70
2021/01/13 09:35:46;;;;;;;56.17;24.90;;;;;;;-0.35;94.37;94444.69;5087971;28;20040;-71
2021/01/13 09:38:14;;;;;;;46.67;22.08;;;;;;;-0.24;93.73;94446.81;5069913;28;20062;-72
2021/01/13 09:40:59;;;;;;;55.85;25.58;;;;;;;-0.22;92.92;94442.34;5088948;28;20047;-71
2021/01/13 09:43:33;;;;;;;44.50;22.85;;;;;;;-0.08;92.94;94437.44;5069793;28;20044;-72
2021/01/13 09:46:03;;;;;;;54.45;23.02;;;;;;;-0.17;92.34;94428.22;5086268;28;20434;-72
2021/01/13 09:48:32;;;;;;;49.97;22.85;;;;;;;-0.12;92.34;94428.50;5089556;28;20467;-72
2021/01/13 09:51:10;;;;;;;51.42;22.70;;;;;;;-0.11;91.73;94423.22;5069936;28;20134;-72
2021/01/13 09:53:47;;;;;;;53.58;25.77;;;;;;;-0.12;91.50;94423.38;5088666;28;20107;-71
2021/01/13 09:56:14;;;;;;;59.75;29.95;;;;;;;-0.11;91.75;94419.84;5088342;28;20044;-72
2021/01/13 09:58:43;;;;;;;52.80;26.70;;;;;;;-0.06;92.01;94420.13;5089215;28;20543;-71
2021/01/13 10:01:17;;;;;;;51.08;26.30;;;;;;;0.00;92.11;94416.88;5088028;28;20112;-73
2021/01/13 10:03:47;;;;;;;55.47;29.33;;;;;;;0.04;91.79;94402.75;5070652;28;20044;-70
2021/01/13 10:06:32;;;;;;;59.38;29.45;;;;;;;0.09;90.37;94413.25;5089177;28;20117;-72
2021/01/13 10:09:18;;;;;;;48.15;21.48;;;;;;;-0.05;89.98;94408.91;5088761;28;20036;-71
2021/01/13 10:11:52;;;;;;;49.67;24.13;;;;;;;-0.17;91.21;94390.63;5069581;28;20040;-72
2021/01/13 10:14:20;;;;;;;56.47;27.40;;;;;;;0.05;91.22;94404.31;5069813;28;20040;-72
2021/01/13 10:16:48;;;;;;;44.40;22.90;;;;;;;0.04;91.11;94402.75;5088303;28;20072;-72
2021/01/13 10:19:15;;;;;;;41.50;20.60;;;;;;;0.03;90.09;94390.91;5087599;28;20378;-72
2021/01/13 10:21:44;;;;;;;39.33;18.15;;;;;;;0.02;90.20;94394.44;5088872;28;20106;-72
2021/01/13 10:24:13;;;;;;;44.83;20.13;;;;;;;0.04;90.10;94407.88;5088771;28;20428;-72
2021/01/13 10:26:42;;;;;;;47.28;22.08;;;;;;;0.05;90.70;94404.31;5088684;28;20747;-72
2021/01/13 10:29:29;;;;;;;37.10;19.63;;;;;;;-0.06;90.47;94386.84;5088352;28;20054;-72
2021/01/13 10:31:58;;;;;;;38.10;19.83;;;;;;;0.05;90.27;94401.75;5088491;28;20406;-72
2021/01/13 10:34:24;;;;;;;44.25;23.90;;;;;;;-0.02;91.05;94393.19;5088635;28;20048;-72
2021/01/13 10:36:52;;;;;;;45.13;22.33;;;;;;;-0.05;90.79;94389.22;5070500;28;20044;-72
2021/01/13 10:39:28;;;;;;;41.80;23.23;;;;;;;-0.05;91.67;94394.34;5069449;28;20086;-72
2021/01/13 10:41:55;;;;;;;51.33;27.02;;;;;;;0.08;91.95;94393.72;5087661;28;20032;-72
2021/01/13 10:44:29;;;;;;;44.45;22.63;;;;;;;-0.06;90.96;94386.84;5085043;28;20051;-72
2021/01/13 10:47:01;;;;;;;43.00;22.35;;;;;;;-0.04;91.29;94384.91;5086596;28;20048;-73
2021/01/13 10:49:27;;;;;;;45.75;22.85;;;;;;;0.00;90.82;94391.28;5087892;28;20064;-71
2021/01/13 10:52:05;;;;;;;53.58;24.40;;;;;;;0.11;91.07;94388.25;5088029;28;20036;-72
2021/01/13 10:54:36;;;;;;;41.50;19.42;;;;;;;0.07;90.95;94376.75;5087865;28;20046;-72
2021/01/13 10:57:08;;;;;;;59.05;27.00;;;;;;;0.09;91.04;94382.53;5087262;28;20048;-72
2021/01/13 10:59:36;;;;;;;46.75;22.17;;;;;;;0.03;90.44;94396.03;5087164;28;20046;-72
2021/01/13 11:02:08;;;;;;;46.55;23.23;;;;;;;-0.11;90.86;94394.25;5087353;28;20441;-72
2021/01/13 11:04:44;;;;;;;47.42;26.35;;;;;;;-0.11;91.31;94378.88;5087513;28;20048;-71
2021/01/13 11:07:18;;;;;;;60.42;29.88;;;;;;;-0.05;92.27;94388.44;5088006;28;20542;-72
2021/01/13 11:09:47;;;;;;;60.75;28.05;;;;;;;0.02;91.75;94368.84;5070081;28;20044;-72
2021/01/13 11:12:19;;;;;;;47.35;24.35;;;;;;;0.13;90.64;94370.94;5085853;28;20493;-72
2021/01/13 11:14:49;;;;;;;54.58;26.67;;;;;;;0.16;91.07;94373.16;5052769;28;20039;-71
2021/01/13 11:17:17;;;;;;;57.28;28.27;;;;;;;0.11;90.65;94372.91;5087676;28;20044;-72
2021/01/13 11:19:54;;;;;;;54.55;26.20;;;;;;;0.18;89.87;94371.22;5069309;28;20051;-71
2021/01/13 11:22:29;;;;;;;56.63;26.10;;;;;;;0.19;90.19;94375.34;5068552;28;20044;-71
2021/01/13 11:24:57;;;;;;;47.78;24.13;;;;;;;0.10;89.65;94371.28;5086622;28;20032;-71
2021/01/13 11:27:24;;;;;;;49.80;27.42;;;;;;;0.11;90.23;94366.97;5067387;28;20043;-71
2021/01/13 11:29:54;;;;;;;51.17;24.38;;;;;;;0.09;90.51;94353.53;5087254;28;20123;-71
2021/01/13 11:32:29;;;;;;;50.20;26.25;;;;;;;0.29;89.69;94371.72;5086940;28;20097;-71
2021/01/13 11:34:56;;;;;;;39.53;19.85;;;;;;;0.21;88.57;94371.81;5087375;28;20046;-71
2021/01/13 11:38:00;;;;;;;51.30;23.52;;;;;;;0.33;88.37;94367.84;5087498;28;20055;-72
2021/01/13 11:40:46;;;;;;;40.10;18.60;;;;;;;0.26;88.46;94369.53;5041648;28;20491;-72
2021/01/13 11:43:52;;;;;;;42.25;21.55;;;;;;;0.35;88.54;94363.34;5086666;28;20047;-72
2021/01/13 11:46:37;;;;;;;41.70;21.50;;;;;;;0.33;88.83;94355.03;5085540;28;20417;-71
2021/01/13 11:49:26;;;;;;;43.25;20.20;;;;;;;0.31;88.47;94368.03;5086892;28;20036;-72
2021/01/13 11:51:56;;;;;;;42.08;23.02;;;;;;;0.35;88.64;94368.47;5085612;28;20071;-72
2021/01/13 11:54:27;;;;;;;49.28;24.55;;;;;;;0.37;89.85;94374.19;5068367;28;20039;-72
2021/01/13 11:56:54;;;;;;;48.97;25.83;;;;;;;0.27;90.15;94371.09;5085946;28;20050;-73
2021/01/13 11:59:26;;;;;;;42.28;22.02;;;;;;;0.25;88.62;94378.97;5086194;28;20400;-72
2021/01/13 12:01:53;;;;;;;44.63;24.38;;;;;;;0.34;88.98;94371.97;5068284;28;20048;-72
2021/01/13 12:04:20;;;;;;;45.35;21.90;;;;;;;0.40;88.78;94371.28;5086474;28;20544;-70
2021/01/13 12:06:59;;;;;;;56.00;25.50;;;;;;;0.43;88.40;94370.91;5086572;28;20975;-71
2021/01/13 12:09:26;;;;;;;54.03;24.25;;;;;;;0.35;88.89;94363.34;5085479;28;20043;-71
2021/01/13 12:11:53;;;;;;;52.10;26.98;;;;;;;0.29;89.00;94376.84;5068161;28;20135;-71
2021/01/13 12:14:19;;;;;;;60.03;29.27;;;;;;;0.33;88.88;94380.66;5086293;28;20032;-70
2021/01/13 12:16:46;;;;;;;46.38;21.48;;;;;;;0.21;89.50;94372.63;5086510;28;20043;-71